sensor_id;sensor_type;location;lat;lon;timestamp;pressure;altitude;pressure_sealevel;temperature;humidity
68199;BME280;55021;51.554;17.044;2024-01-07T00:01:15;100602.25;;;-1.83;89.69
68199;BME280;55021;51.554;17.044;2024-01-07T00:16:38;100618.09;;;-1.82;87.67
68199;BME280;55021;51.554;17.044;2024-01-07T00:31:42;100609.06;;;-2.12;88.88
68199;BME280;55021;51.554;17.044;2024-01-07T00:46:44;100643.41;;;-2.43;88.01
68199;BME280;55021;51.554;17.044;2024-01-07T01:01:47;100657.59;;;-1.91;88.52
68199;BME280;55021;51.554;17.044;2024-01-07T01:16:54;100668.31;;;-2.46;91.17
68199;BME280;55021;51.554;17.044;2024-01-07T01:31:58;100671.91;;;-2.47;91.39
68199;BME280;55021;51.554;17.044;2024-01-07T01:47:01;100678.78;;;-2.43;88.76
68199;BME280;55021;51.554;17.044;2024-01-07T02:02:04;100623.31;;;-2.66;89.79
68199;BME280;55021;51.554;17.044;2024-01-07T02:17:06;100691.72;;;-2.18;88.83
68199;BME280;55021;51.554;17.044;2024-01-07T02:32:08;100693.63;;;-2.39;89.22
68199;BME280;55021;51.554;17.044;2024-01-07T02:47:11;100701.94;;;-2.82;90.25
68199;BME280;55021;51.554;17.044;2024-01-07T03:02:13;100685.91;;;-2.43;85.62
68199;BME280;55021;51.554;17.044;2024-01-07T03:17:15;100713.09;;;-3.13;90.09
68199;BME280;55021;51.554;17.044;2024-01-07T03:32:17;100704.59;;;-2.82;89.50
68199;BME280;55021;51.554;17.044;2024-01-07T03:47:19;100707.72;;;-3.30;91.19
68199;BME280;55021;51.554;17.044;2024-01-07T04:02:22;100736.50;;;-3.02;90.65
68199;BME280;55021;51.554;17.044;2024-01-07T04:17:24;100746.09;;;-3.38;91.21
68199;BME280;55021;51.554;17.044;2024-01-07T04:32:27;100720.97;;;-3.30;90.29
68199;BME280;55021;51.554;17.044;2024-01-07T04:47:30;100772.31;;;-3.53;91.85
68199;BME280;55021;51.554;17.044;2024-01-07T05:02:32;100788.53;;;-3.40;91.59
68199;BME280;55021;51.554;17.044;2024-01-07T05:17:34;100800.22;;;-3.44;90.50
68199;BME280;55021;51.554;17.044;2024-01-07T05:32:36;100820.84;;;-3.92;90.38
68199;BME280;55021;51.554;17.044;2024-01-07T05:47:39;100812.63;;;-3.24;87.83
68199;BME280;55021;51.554;17.044;2024-01-07T06:02:41;100828.31;;;-3.60;87.61
68199;BME280;55021;51.554;17.044;2024-01-07T06:17:43;100852.97;;;-2.59;79.96
68199;BME280;55021;51.554;17.044;2024-01-07T06:32:46;100826.31;;;-2.95;80.73
68199;BME280;55021;51.554;17.044;2024-01-07T06:47:51;100865.69;;;-3.26;87.38
68199;BME280;55021;51.554;17.044;2024-01-07T07:02:53;100907.53;;;-3.76;90.12
68199;BME280;55021;51.554;17.044;2024-01-07T07:17:55;100924.00;;;-3.68;87.75
68199;BME280;55021;51.554;17.044;2024-01-07T07:32:57;100931.69;;;-4.28;86.25
68199;BME280;55021;51.554;17.044;2024-01-07T07:47:59;100962.53;;;-4.77;83.93
68199;BME280;55021;51.554;17.044;2024-01-07T08:03:02;100966.53;;;-4.65;83.56
68199;BME280;55021;51.554;17.044;2024-01-07T08:18:04;100993.59;;;-5.08;80.80
68199;BME280;55021;51.554;17.044;2024-01-07T08:33:07;100998.16;;;-4.87;76.96
68199;BME280;55021;51.554;17.044;2024-01-07T08:48:09;101011.69;;;-4.45;77.81
68199;BME280;55021;51.554;17.044;2024-01-07T09:03:11;101022.97;;;-4.66;75.08
68199;BME280;55021;51.554;17.044;2024-01-07T09:18:14;101036.34;;;-4.69;76.82
68199;BME280;55021;51.554;17.044;2024-01-07T09:33:16;101048.97;;;-5.31;75.78
68199;BME280;55021;51.554;17.044;2024-01-07T09:48:18;101047.84;;;-4.96;76.14
68199;BME280;55021;51.554;17.044;2024-01-07T10:03:20;101041.66;;;-5.23;79.27
68199;BME280;55021;51.554;17.044;2024-01-07T10:18:23;101047.25;;;-5.32;77.38
68199;BME280;55021;51.554;17.044;2024-01-07T10:33:26;101069.28;;;-5.33;80.61
68199;BME280;55021;51.554;17.044;2024-01-07T10:48:32;101061.44;;;-5.08;79.12
68199;BME280;55021;51.554;17.044;2024-01-07T11:03:40;101064.13;;;-5.65;80.18
68199;BME280;55021;51.554;17.044;2024-01-07T11:18:50;101060.28;;;-5.54;80.09
68199;BME280;55021;51.554;17.044;2024-01-07T11:33:52;101050.84;;;-4.81;74.28
68199;BME280;55021;51.554;17.044;2024-01-07T11:48:56;101050.81;;;-4.54;72.77
68199;BME280;55021;51.554;17.044;2024-01-07T12:03:59;101034.03;;;-5.04;71.81
68199;BME280;55021;51.554;17.044;2024-01-07T12:19:01;101060.66;;;-5.97;75.98
68199;BME280;55021;51.554;17.044;2024-01-07T12:34:03;101061.84;;;-5.78;77.25
68199;BME280;55021;51.554;17.044;2024-01-07T12:49:07;101090.06;;;-6.10;79.61
68199;BME280;55021;51.554;17.044;2024-01-07T13:04:09;101100.22;;;-5.95;79.15
68199;BME280;55021;51.554;17.044;2024-01-07T13:19:11;101120.22;;;-6.19;79.95
68199;BME280;55021;51.554;17.044;2024-01-07T13:34:14;101129.16;;;-6.24;80.05
68199;BME280;55021;51.554;17.044;2024-01-07T13:49:16;101139.69;;;-6.57;81.32
68199;BME280;55021;51.554;17.044;2024-01-07T14:04:18;101105.50;;;-6.93;82.09
68199;BME280;55021;51.554;17.044;2024-01-07T14:19:20;101159.69;;;-6.83;80.97
68199;BME280;55021;51.554;17.044;2024-01-07T14:34:22;101179.28;;;-6.93;81.49
68199;BME280;55021;51.554;17.044;2024-01-07T21:30:53;101474.19;;;-7.29;84.57
68199;BME280;55021;51.554;17.044;2024-01-07T21:45:56;101495.63;;;-6.99;82.03
68199;BME280;55021;51.554;17.044;2024-01-07T22:00:59;101515.88;;;-7.02;83.01
68199;BME280;55021;51.554;17.044;2024-01-07T22:16:02;101557.06;;;-6.97;82.26
68199;BME280;55021;51.554;17.044;2024-01-07T22:31:05;101575.84;;;-7.16;82.20
68199;BME280;55021;51.554;17.044;2024-01-07T22:46:08;101556.78;;;-7.31;83.53
68199;BME280;55021;51.554;17.044;2024-01-07T23:01:11;101481.56;;;-6.98;78.08
68199;BME280;55021;51.554;17.044;2024-01-07T23:16:13;101595.84;;;-7.06;83.23
68199;BME280;55021;51.554;17.044;2024-01-07T23:31:16;101608.13;;;-8.36;87.68
68199;BME280;55021;51.554;17.044;2024-01-07T23:46:19;101548.59;;;-9.28;87.50
